Time;durP1;ratioP1;P1;durP2;ratioP2;P2;SDS_P1;SDS_P2;PMS_P1;PMS_P2;Temp;Humidity;BMP_temperature;BMP_pressure;BME280_temperature;BME280_humidity;BME280_pressure;Samples;Min_cycle;Max_cycle;Signal;HPM_P1;HPM_P2
2023/04/11 00:02:17;;;;;;;4.22;2.50;;;7.70;99.90;;;;;;5096614;28;20043;-77
2023/04/11 00:04:42;;;;;;;6.47;1.48;;;6.90;99.90;;;;;;5096565;28;20502;-78
2023/04/11 00:07:08;;;;;;;2.55;1.40;;;7.00;99.90;;;;;;5096378;28;20040;-76
2023/04/11 00:09:34;;;;;;;3.75;1.58;;;7.10;99.90;;;;;;5096765;28;20093;-77
2023/04/11 00:12:03;;;;;;;3.33;1.38;;;6.90;99.90;;;;;;5096475;28;20042;-77
2023/04/11 00:14:31;;;;;;;7.40;1.50;;;7.00;99.90;;;;;;5096357;28;20055;-76
2023/04/11 00:16:59;;;;;;;7.20;1.60;;;7.00;99.90;;;;;;5096104;28;20466;-77
2023/04/11 00:19:27;;;;;;;2.85;1.20;;;7.00;99.90;;;;;;5096204;28;20044;-77
2023/04/11 00:21:57;;;;;;;3.10;1.48;;;7.00;99.90;;;;;;5096284;28;20083;-77
2023/04/11 00:24:23;;;;;;;4.53;1.33;;;7.00;99.90;;;;;;5095158;28;20369;-77
2023/04/11 00:26:49;;;;;;;6.95;1.40;;;7.00;99.90;;;;;;5096066;28;20563;-77
2023/04/11 00:29:14;;;;;;;4.35;1.48;;;6.90;99.90;;;;;;5096097;28;20135;-77
2023/04/11 00:31:40;;;;;;;5.07;1.60;;;7.30;99.90;;;;;;5096243;28;20032;-77
2023/04/11 00:34:06;;;;;;;3.50;1.50;;;6.80;99.90;;;;;;5095886;28;20048;-78
2023/04/11 00:36:31;;;;;;;5.95;1.60;;;6.80;99.90;;;;;;5095988;28;20066;-77
2023/04/11 00:38:57;;;;;;;4.47;1.60;;;6.70;99.90;;;;;;5095914;28;20035;-78
2023/04/11 00:41:23;;;;;;;2.47;1.35;;;6.70;99.90;;;;;;5095075;28;20040;-77
2023/04/11 00:43:49;;;;;;;5.10;1.45;;;6.70;99.90;;;;;;5095802;28;20131;-77
2023/04/11 00:46:16;;;;;;;3.33;1.40;;;6.70;99.90;;;;;;5096063;28;20561;-77
2023/04/11 00:48:43;;;;;;;6.65;1.60;;;6.70;99.90;;;;;;5095257;28;20484;-78
2023/04/11 00:51:09;;;;;;;3.85;1.65;;;6.60;99.90;;;;;;5096200;28;20062;-77
2023/04/11 00:53:36;;;;;;;4.57;1.63;;;6.60;99.90;;;;;;5096012;28;20089;-78
2023/04/11 00:56:02;;;;;;;;;;;6.60;99.90;;;;;;5095978;28;20040;-78
2023/04/11 00:58:28;;;;;;;3.10;1.48;;;6.60;99.90;;;;;;5095546;28;19920;-77
2023/04/11 01:00:54;;;;;;;4.43;1.63;;;6.60;99.90;;;;;;5095465;28;20134;-77
2023/04/11 01:03:21;;;;;;;4.65;1.98;;;6.60;99.90;;;;;;5095343;28;20056;-78
2023/04/11 01:05:47;;;;;;;;;;;6.60;99.90;;;;;;5095878;28;20051;-77
2023/04/11 01:08:14;;;;;;;5.25;2.00;;;6.60;99.90;;;;;;5095210;28;19931;-76
2023/04/11 01:10:40;;;;;;;7.88;2.08;;;6.60;99.90;;;;;;5095220;28;20046;-77
2023/04/11 01:13:07;;;;;;;3.65;1.70;;;6.60;99.90;;;;;;5095283;28;20093;-77
2023/04/11 01:15:33;;;;;;;4.60;2.08;;;7.20;99.90;;;;;;5095150;28;20048;-78
2023/04/11 01:18:00;;;;;;;3.80;2.17;;;6.70;99.90;;;;;;5095020;28;20036;-78
2023/04/11 01:20:27;;;;;;;10.27;2.20;;;6.70;99.90;;;;;;5095072;28;20044;-77
2023/04/11 01:22:55;;;;;;;6.07;1.92;;;6.60;99.90;;;;;;5095094;28;20040;-76
2023/04/11 01:25:22;;;;;;;6.22;2.15;;;6.70;99.90;;;;;;5094971;28;20052;-76
2023/04/11 01:27:48;;;;;;;9.02;2.00;;;6.70;99.90;;;;;;5094522;28;20553;-77
2023/04/11 01:30:14;;;;;;;6.60;2.17;;;6.70;99.90;;;;;;5094948;28;20052;-77
2023/04/11 01:32:39;;;;;;;5.28;2.08;;;6.70;99.90;;;;;;5093631;28;20404;-76
2023/04/11 01:35:07;;;;;;;4.43;2.20;;;6.70;99.90;;;;;;5095234;28;20460;-77
2023/04/11 01:37:33;;;;;;;3.83;2.00;;;6.70;99.90;;;;;;5094768;28;20079;-77
2023/04/11 01:39:59;;;;;;;6.38;2.15;;;6.60;99.90;;;;;;5094793;28;20142;-78
2023/04/11 01:42:26;;;;;;;5.75;1.95;;;6.60;99.90;;;;;;5094714;28;20056;-77
2023/04/11 01:44:53;;;;;;;4.78;2.10;;;6.50;99.90;;;;;;5094324;28;20516;-78
2023/04/11 01:47:18;;;;;;;4.57;2.20;;;6.50;99.90;;;;;;5092747;28;20127;-77
2023/04/11 01:49:44;;;;;;;4.78;1.90;;;6.50;99.90;;;;;;5094281;28;20136;-76
2023/04/11 01:52:10;;;;;;;5.97;2.03;;;6.50;99.90;;;;;;5094530;28;20473;-77
2023/04/11 01:54:35;;;;;;;8.40;2.35;;;6.60;99.90;;;;;;5094612;28;20487;-77
2023/04/11 01:57:01;;;;;;;9.13;2.13;;;6.60;99.90;;;;;;5094398;28;20040;-76
2023/04/11 01:59:26;;;;;;;7.90;3.13;;;6.70;99.90;;;;;;5094388;28;20387;-77
2023/04/11 02:01:52;;;;;;;5.10;2.00;;;6.70;99.90;;;;;;5094399;28;20043;-77
2023/04/11 02:04:18;;;;;;;6.53;2.10;;;7.20;99.90;;;;;;5094336;28;20441;-78
2023/04/11 02:06:43;;;;;;;7.75;2.78;;;7.00;99.90;;;;;;5094244;28;20059;-78
2023/04/11 02:09:09;;;;;;;12.57;2.50;;;7.10;99.90;;;;;;5094164;28;20126;-77
2023/04/11 02:11:35;;;;;;;9.60;2.35;;;7.40;99.90;;;;;;5094197;28;20453;-77
2023/04/11 02:14:01;;;;;;;7.15;2.75;;;6.80;99.90;;;;;;5093248;28;20494;-77
2023/04/11 02:16:28;;;;;;;9.80;2.35;;;6.80;99.90;;;;;;5094099;28;20087;-78
2023/04/11 02:18:54;;;;;;;4.20;1.88;;;6.80;99.90;;;;;;5093756;28;20401;-78
2023/04/11 02:21:20;;;;;;;5.57;2.80;;;6.80;99.90;;;;;;5094084;28;20054;-77
2023/04/11 02:23:46;;;;;;;8.40;2.05;;;6.70;99.90;;;;;;5093193;28;20035;-77
2023/04/11 02:26:11;;;;;;;7.95;2.67;;;6.70;99.90;;;;;;5094004;28;20079;-76
2023/04/11 02:28:37;;;;;;;6.35;2.00;;;6.70;99.90;;;;;;5094033;28;20040;-77
2023/04/11 02:31:02;;;;;;;10.07;2.70;;;6.70;99.90;;;;;;5093953;28;20079;-76
2023/04/11 02:33:28;;;;;;;11.35;2.67;;;6.70;99.90;;;;;;5093799;28;20048;-76
2023/04/11 02:35:54;;;;;;;8.85;2.38;;;7.50;99.90;;;;;;5092687;28;20051;-77
2023/04/11 02:38:20;;;;;;;7.05;2.65;;;6.80;99.90;;;;;;5094273;28;20369;-77
2023/04/11 02:40:46;;;;;;;12.50;2.55;;;6.80;99.90;;;;;;5093633;28;20543;-77
2023/04/11 02:43:12;;;;;;;10.38;2.53;;;6.70;99.90;;;;;;5093759;28;20127;-76
2023/04/11 02:45:37;;;;;;;9.75;2.45;;;6.90;99.90;;;;;;5093460;28;20130;-77
2023/04/11 02:48:03;;;;;;;10.35;2.92;;;6.80;99.90;;;;;;5093675;28;20040;-76
2023/04/11 02:50:29;;;;;;;14.73;3.37;;;6.80;99.90;;;;;;5093694;28;20063;-76
2023/04/11 02:52:55;;;;;;;13.93;3.40;;;6.90;99.90;;;;;;5094061;28;20044;-77
2023/04/11 02:55:24;;;;;;;12.48;3.47;;;7.70;99.90;;;;;;5093917;28;20048;-78
2023/04/11 02:57:50;;;;;;;10.05;3.20;;;6.90;99.90;;;;;;5094343;28;20040;-77
2023/04/11 03:00:18;;;;;;;10.13;3.73;;;7.00;99.90;;;;;;5097812;28;20059;-77
2023/04/11 03:02:44;;;;;;;13.23;3.35;;;7.00;99.90;;;;;;5097413;28;20059;-76
2023/04/11 03:05:10;;;;;;;18.30;3.63;;;7.00;99.90;;;;;;5097730;28;20119;-77
2023/04/11 03:07:37;;;;;;;10.93;3.20;;;7.00;99.90;;;;;;5097289;28;20072;-77
2023/04/11 03:10:03;;;;;;;;;;;7.30;99.90;;;;;;5097725;28;20510;-77
2023/04/11 03:12:28;;;;;;;17.42;3.88;;;7.10;99.90;;;;;;5097737;28;19920;-78
2023/04/11 03:14:54;;;;;;;14.95;4.65;;;7.10;99.90;;;;;;5097259;28;20051;-78
2023/04/11 03:17:19;;;;;;;9.10;2.72;;;7.80;99.90;;;;;;5097431;28;20036;-78
2023/04/11 03:19:45;;;;;;;16.40;2.95;;;7.10;99.90;;;;;;5098157;28;20047;-78
2023/04/11 03:22:11;;;;;;;6.55;2.58;;;7.80;99.90;;;;;;5097428;28;20126;-78
2023/04/11 03:24:39;;;;;;;11.40;3.30;;;7.10;99.90;;;;;;5097255;28;20040;-77
2023/04/11 03:27:05;;;;;;;6.82;2.60;;;7.10;99.90;;;;;;5097180;28;20040;-77
2023/04/11 03:29:31;;;;;;;9.70;2.55;;;7.10;99.90;;;;;;5096989;28;20181;-77
2023/04/11 03:31:57;;;;;;;11.73;3.23;;;7.10;99.90;;;;;;5095963;28;20472;-78
2023/04/11 03:34:24;;;;;;;11.27;3.40;;;7.10;99.90;;;;;;5097182;28;20143;-77
2023/04/11 03:36:50;;;;;;;;;;;7.10;99.90;;;;;;5097515;28;20121;-77
2023/04/11 03:39:16;;;;;;;11.93;2.83;;;7.20;99.90;;;;;;5096031;28;20306;-78
2023/04/11 03:41:41;;;;;;;7.95;3.13;;;7.10;99.90;;;;;;5097069;28;20087;-77
2023/04/11 03:44:07;;;;;;;13.52;2.97;;;7.10;99.90;;;;;;5096681;28;20507;-77
2023/04/11 03:46:32;;;;;;;13.40;2.97;;;7.60;99.90;;;;;;5096850;28;20036;-77
2023/04/11 03:48:58;;;;;;;8.95;2.40;;;7.20;99.90;;;;;;5096651;28;20194;-77
2023/04/11 03:51:25;;;;;;;12.07;2.85;;;7.20;99.90;;;;;;5096434;28;20113;-77
2023/04/11 03:53:51;;;;;;;;;;;7.20;99.90;;;;;;5097165;28;20424;-77
2023/04/11 03:56:16;;;;;;;14.77;3.20;;;7.20;99.90;;;;;;5096993;28;19928;-77
2023/04/11 03:58:42;;;;;;;12.43;2.88;;;7.20;99.90;;;;;;5096660;28;20522;-77
2023/04/11 04:01:08;;;;;;;11.85;2.67;;;7.20;99.90;;;;;;5096521;28;20048;-76
2023/04/11 04:03:33;;;;;;;11.50;2.45;;;7.20;99.90;;;;;;5097013;28;20074;-76
2023/04/11 04:05:59;;;;;;;13.93;3.42;;;7.20;99.90;;;;;;5096938;28;20050;-76
2023/04/11 04:08:24;;;;;;;10.05;2.65;;;7.20;99.90;;;;;;5096051;28;20067;-76
2023/04/11 04:10:50;;;;;;;8.32;2.15;;;7.30;99.90;;;;;;5096655;28;20040;-77
2023/04/11 04:13:16;;;;;;;12.18;2.38;;;7.30;99.90;;;;;;5096445;28;20040;-76
2023/04/11 04:15:41;;;;;;;7.75;2.05;;;7.30;99.90;;;;;;5096296;28;20051;-76
2023/04/11 04:18:07;;;;;;;12.40;2.67;;;7.30;99.90;;;;;;5096862;28;20539;-76
2023/04/11 04:20:32;;;;;;;9.15;2.75;;;8.00;99.90;;;;;;5096584;28;20043;-76
2023/04/11 04:22:59;;;;;;;6.32;2.10;;;7.30;99.90;;;;;;5096205;28;20048;-77
2023/04/11 04:25:24;;;;;;;13.65;2.65;;;7.30;99.90;;;;;;5096175;28;20059;-77
2023/04/11 04:27:52;;;;;;;7.72;2.47;;;7.30;99.90;;;;;;5096103;28;20040;-76
2023/04/11 04:30:18;;;;;;;7.38;2.38;;;7.80;99.90;;;;;;5096069;28;20048;-76
2023/04/11 04:32:44;;;;;;;12.32;2.63;;;7.30;99.90;;;;;;5096047;28;20048;-76
2023/04/11 04:35:15;;;;;;;10.32;2.63;;;7.30;99.90;;;;;;5096386;28;20541;-77
2023/04/11 04:37:44;;;;;;;8.55;2.42;;;7.60;99.90;;;;;;5096155;28;20480;-75
2023/04/11 04:40:12;;;;;;;11.48;2.30;;;7.30;99.90;;;;;;5094771;28;20395;-76
2023/04/11 04:42:40;;;;;;;12.70;2.65;;;7.40;99.90;;;;;;5095946;28;20460;-77
2023/04/11 04:45:07;;;;;;;7.60;2.40;;;7.70;99.90;;;;;;5095717;28;20052;-76
2023/04/11 04:47:34;;;;;;;14.32;2.92;;;7.40;99.90;;;;;;5094451;28;20047;-76
2023/04/11 04:49:59;;;;;;;;;;;7.40;99.90;;;;;;5095992;28;20052;-76
2023/04/11 04:52:27;;;;;;;9.18;2.75;;;7.40;99.90;;;;;;5095631;28;19927;-78
2023/04/11 04:54:56;;;;;;;8.23;2.40;;;7.40;99.90;;;;;;5095553;28;20397;-76
2023/04/11 04:57:26;;;;;;;9.85;2.60;;;7.40;99.90;;;;;;5095459;28;20040;-76
2023/04/11 04:59:53;;;;;;;11.70;2.60;;;7.40;99.90;;;;;;5095487;28;20118;-76
2023/04/11 05:02:20;;;;;;;7.05;2.03;;;7.40;99.90;;;;;;5095079;28;20039;-78
2023/04/11 05:04:47;;;;;;;8.60;2.75;;;7.50;99.90;;;;;;5095483;28;20036;-80
2023/04/11 05:07:13;;;;;;;11.98;2.47;;;7.50;99.90;;;;;;5094079;28;20048;-80
2023/04/11 05:09:39;;;;;;;8.82;2.13;;;7.50;99.90;;;;;;5094353;28;20060;-79
2023/04/11 05:12:05;;;;;;;7.70;2.57;;;7.50;99.90;;;;;;5095339;28;20047;-77
2023/04/11 05:14:31;;;;;;;10.75;2.70;;;7.40;99.90;;;;;;5095623;28;20286;-79
2023/04/11 05:16:56;;;;;;;7.25;2.65;;;7.50;99.90;;;;;;5095223;28;20137;-76
2023/04/11 05:19:22;;;;;;;11.52;2.28;;;7.50;99.90;;;;;;5095161;28;20503;-76
2023/04/11 05:21:47;;;;;;;12.02;2.88;;;8.10;99.90;;;;;;5094056;28;20089;-76
2023/04/11 05:24:13;;;;;;;9.40;2.40;;;7.50;99.90;;;;;;5095258;28;20051;-77
2023/04/11 05:26:39;;;;;;;6.60;2.30;;;7.50;99.90;;;;;;5094983;28;20434;-76
2023/04/11 05:29:05;;;;;;;6.95;2.58;;;7.50;99.90;;;;;;5094812;28;20464;-77
2023/04/11 05:31:31;;;;;;;10.52;3.47;;;7.50;99.90;;;;;;5094999;28;20079;-77
2023/04/11 05:33:57;;;;;;;8.20;2.17;;;7.60;99.90;;;;;;5094915;28;20085;-76
2023/04/11 05:36:23;;;;;;;8.82;2.28;;;7.50;99.90;;;;;;5094734;28;20040;-77
2023/04/11 05:38:49;;;;;;;7.55;2.38;;;7.60;99.90;;;;;;5094739;28;20051;-77
2023/04/11 05:41:15;;;;;;;19.85;3.03;;;7.60;99.90;;;;;;5094744;28;20040;-77
2023/04/11 05:43:41;;;;;;;4.95;2.08;;;7.60;99.90;;;;;;5094334;28;20055;-77
2023/04/11 05:46:09;;;;;;;4.65;2.05;;;7.60;99.90;;;;;;5094407;28;20040;-81
2023/04/11 05:48:36;;;;;;;4.13;1.90;;;7.60;99.90;;;;;;5094500;28;20043;-77
2023/04/11 05:51:02;;;;;;;5.93;1.75;;;7.80;99.90;;;;;;5094489;28;20116;-77
2023/04/11 05:53:28;;;;;;;9.90;2.13;;;7.70;99.90;;;;;;5094546;28;20130;-77
2023/04/11 05:55:54;;;;;;;8.48;2.42;;;7.70;99.90;;;;;;5094493;28;20040;-76
2023/04/11 05:58:19;;;;;;;7.07;2.10;;;7.70;99.90;;;;;;5094347;28;20039;-75
2023/04/11 06:00:45;;;;;;;7.53;2.05;;;8.10;99.90;;;;;;5094442;28;20044;-74
2023/04/11 06:03:11;;;;;;;6.50;1.90;;;7.80;99.90;;;;;;5093427;28;20054;-81
2023/04/11 06:05:37;;;;;;;5.20;1.83;;;7.80;99.90;;;;;;5094311;28;20039;-77
2023/04/11 06:08:05;;;;;;;7.72;2.45;;;8.00;99.90;;;;;;5094244;28;20047;-76
2023/04/11 06:10:31;;;;;;;7.13;1.90;;;7.90;99.90;;;;;;5094234;28;20080;-81
2023/04/11 06:12:57;;;;;;;8.80;1.83;;;8.40;99.90;;;;;;5092994;28;20082;-76
2023/04/11 06:15:24;;;;;;;4.00;1.92;;;7.90;99.90;;;;;;5094055;28;20048;-76
2023/04/11 06:17:50;;;;;;;10.20;2.35;;;8.00;99.90;;;;;;5093679;28;20043;-76
2023/04/11 06:20:16;;;;;;;8.25;1.90;;;8.10;99.90;;;;;;5094062;28;20105;-76
2023/04/11 06:22:42;;;;;;;6.72;2.10;;;8.00;99.90;;;;;;5094268;28;20036;-77
2023/04/11 06:25:08;;;;;;;4.73;1.87;;;8.10;99.90;;;;;;5093935;28;20043;-77
2023/04/11 06:27:34;;;;;;;8.52;2.45;;;8.00;99.90;;;;;;5093827;28;20047;-76
2023/04/11 06:30:00;;;;;;;10.85;1.83;;;8.20;99.90;;;;;;5093629;28;20498;-76
2023/04/11 06:32:26;;;;;;;3.97;1.80;;;8.10;99.90;;;;;;5093777;28;20059;-77
2023/04/11 06:34:52;;;;;;;8.23;2.00;;;8.10;99.90;;;;;;5093806;28;20044;-76
2023/04/11 06:37:18;;;;;;;4.63;1.65;;;8.10;99.90;;;;;;5093868;28;20052;-77
2023/04/11 06:39:43;;;;;;;8.13;1.80;;;8.10;99.90;;;;;;5093831;28;20055;-76
2023/04/11 06:42:09;;;;;;;6.25;2.15;;;8.10;99.90;;;;;;5093669;28;20040;-77
2023/04/11 06:44:35;;;;;;;6.40;2.30;;;8.20;99.90;;;;;;5093838;28;20441;-77
2023/04/11 06:47:00;;;;;;;5.78;2.00;;;8.30;99.90;;;;;;5093690;28;20059;-76
2023/04/11 06:49:30;;;;;;;6.50;2.20;;;8.30;99.90;;;;;;5093296;28;20063;-76
2023/04/11 06:51:58;;;;;;;7.00;2.10;;;8.30;99.90;;;;;;5092599;28;20464;-76
2023/04/11 06:54:24;;;;;;;8.75;1.92;;;8.40;99.90;;;;;;5093754;28;20105;-76
2023/04/11 06:56:49;;;;;;;6.25;2.28;;;8.40;99.90;;;;;;5093664;28;20052;-76
2023/04/11 06:59:18;;;;;;;7.15;1.85;;;8.40;99.90;;;;;;5094081;28;20036;-76
2023/04/11 07:01:44;;;;;;;4.43;2.40;;;8.40;99.90;;;;;;5093461;28;20523;-77
2023/04/11 07:04:10;;;;;;;12.57;2.20;;;8.30;99.90;;;;;;5093475;28;20091;-77
2023/04/11 07:06:35;;;;;;;6.32;2.00;;;8.30;99.90;;;;;;5093252;28;20044;-76
2023/04/11 07:09:02;;;;;;;5.53;2.03;;;8.30;99.90;;;;;;5093531;28;20040;-76
2023/04/11 07:11:28;;;;;;;7.60;1.95;;;8.30;99.90;;;;;;5093519;28;20412;-76
2023/04/11 07:13:55;;;;;;;9.75;2.20;;;8.80;99.90;;;;;;5093913;28;20048;-77
2023/04/11 07:16:20;;;;;;;4.53;1.90;;;8.40;99.90;;;;;;5093757;28;20400;-77
2023/04/11 07:18:47;;;;;;;5.15;1.92;;;9.20;99.90;;;;;;5093429;28;20036;-77
2023/04/11 07:21:13;;;;;;;7.05;2.28;;;8.50;99.90;;;;;;5093439;28;20040;-77
2023/04/11 07:23:39;;;;;;;6.45;1.88;;;8.60;99.90;;;;;;5093438;28;20058;-77
2023/04/11 07:26:07;;;;;;;9.10;1.77;;;8.60;99.90;;;;;;5093320;28;20086;-77
2023/04/11 07:28:34;;;;;;;7.82;2.15;;;8.60;99.90;;;;;;5093244;28;20109;-76
2023/04/11 07:30:59;;;;;;;8.07;2.17;;;8.70;99.90;;;;;;5092585;28;20040;-77
2023/04/11 07:33:26;;;;;;;8.15;2.00;;;8.70;99.90;;;;;;5093257;28;20047;-76
2023/04/11 07:35:51;;;;;;;10.17;2.10;;;8.70;99.90;;;;;;5093313;28;20047;-76
2023/04/11 07:38:26;;;;;;;6.38;2.00;;;8.90;99.90;;;;;;5093150;28;20630;-76
2023/04/11 07:40:52;;;;;;;6.78;2.25;;;9.10;99.90;;;;;;5093733;28;20052;-76
2023/04/11 07:43:18;;;;;;;5.77;2.20;;;9.10;99.90;;;;;;5093168;28;20084;-76
2023/04/11 07:45:43;;;;;;;3.30;1.48;;;9.10;99.90;;;;;;5096734;28;20086;-76
2023/04/11 07:48:09;;;;;;;9.32;2.75;;;9.20;99.90;;;;;;5096922;28;20086;-77
2023/04/11 07:50:34;;;;;;;9.35;1.90;;;9.10;99.90;;;;;;5097101;28;20052;-77
2023/04/11 07:53:01;;;;;;;9.02;1.88;;;9.00;99.90;;;;;;5096689;28;20040;-78
2023/04/11 07:55:26;;;;;;;8.52;2.00;;;9.30;99.90;;;;;;5095537;28;20098;-80
2023/04/11 07:57:52;;;;;;;9.18;2.10;;;8.90;99.90;;;;;;5096718;28;20475;-77
2023/04/11 08:00:19;;;;;;;6.05;1.70;;;8.90;99.90;;;;;;5096809;28;20036;-78
2023/04/11 08:02:45;;;;;;;5.70;1.98;;;9.00;99.90;;;;;;5096870;28;20040;-78
2023/04/11 08:05:10;;;;;;;8.25;1.60;;;9.00;99.90;;;;;;5096548;28;20131;-76
2023/04/11 08:07:36;;;;;;;7.80;1.83;;;9.10;99.90;;;;;;5096493;28;20044;-78
2023/04/11 08:10:02;;;;;;;6.03;1.80;;;9.20;99.90;;;;;;5096452;28;20052;-78
2023/04/11 08:12:27;;;;;;;4.88;1.50;;;9.20;99.90;;;;;;5096337;28;20043;-75
2023/04/11 08:14:53;;;;;;;5.90;1.77;;;9.30;99.90;;;;;;5096443;28;20051;-75
2023/04/11 08:17:18;;;;;;;3.97;1.15;;;9.90;99.90;;;;;;5096328;28;20051;-77
2023/04/11 08:19:44;;;;;;;6.40;1.40;;;9.60;99.90;;;;;;5096363;28;20113;-77
2023/04/11 08:22:10;;;;;;;3.90;1.65;;;9.60;99.90;;;;;;5096283;28;20529;-76
2023/04/11 08:24:35;;;;;;;4.50;1.50;;;9.60;99.90;;;;;;5089379;28;20178;-80
2023/04/11 08:27:01;;;;;;;5.55;1.85;;;9.70;99.90;;;;;;5087334;28;20391;-80
2023/04/11 08:29:27;;;;;;;4.68;1.33;;;9.90;99.90;;;;;;5075563;28;20102;-76
2023/04/11 08:31:52;;;;;;;7.50;1.90;;;9.90;99.90;;;;;;5075708;28;20094;-74
2023/04/11 08:34:18;;;;;;;7.68;1.48;;;9.80;99.90;;;;;;5075418;28;20373;-75
2023/04/11 08:36:43;;;;;;;8.00;1.73;;;9.90;99.90;;;;;;5075479;28;20048;-75
2023/04/11 08:39:09;;;;;;;7.40;1.77;;;10.00;99.90;;;;;;5091064;28;20045;-76
2023/04/11 08:41:36;;;;;;;5.70;1.48;;;10.10;99.90;;;;;;5075460;28;20046;-76
2023/04/11 08:44:02;;;;;;;4.47;1.27;;;10.10;99.90;;;;;;5075197;28;20439;-76
2023/04/11 08:46:31;;;;;;;6.07;1.60;;;10.20;99.90;;;;;;5075197;28;20045;-76
2023/04/11 08:48:56;;;;;;;6.35;1.85;;;10.30;99.90;;;;;;5074730;28;20052;-76
2023/04/11 08:51:25;;;;;;;5.10;1.63;;;10.40;99.90;;;;;;5075014;28;20052;-76
2023/04/11 08:53:53;;;;;;;6.53;1.73;;;10.50;99.90;;;;;;5074817;28;20048;-76
2023/04/11 08:56:18;;;;;;;4.88;1.88;;;10.60;99.90;;;;;;5074021;28;20040;-75
2023/04/11 08:58:45;;;;;;;5.70;1.70;;;10.50;99.90;;;;;;5075154;28;20041;-77
2023/04/11 09:01:30;;;;;;;8.10;1.50;;;10.50;99.90;;;;;;5075056;28;20044;-75
2023/04/11 09:03:58;;;;;;;6.70;1.60;;;10.30;99.90;;;;;;5074910;28;20040;-77
2023/04/11 09:06:25;;;;;;;5.60;1.60;;;10.20;99.90;;;;;;5074534;28;20040;-75
2023/04/11 09:08:51;;;;;;;8.32;1.75;;;10.60;99.90;;;;;;5074901;28;20076;-76
2023/04/11 09:11:17;;;;;;;5.63;2.15;;;10.20;99.90;;;;;;5074921;28;20146;-75
2023/04/11 09:13:43;;;;;;;3.50;1.55;;;10.30;99.90;;;;;;5074868;28;20045;-75
2023/04/11 09:16:12;;;;;;;9.48;1.60;;;10.50;99.90;;;;;;5074817;28;20047;-77
2023/04/11 09:18:47;;;;;;;11.13;1.60;;;10.70;99.90;;;;;;5074568;28;20127;-76
2023/04/11 09:21:15;;;;;;;7.15;2.22;;;10.90;99.90;;;;;;5074767;28;20094;-74
2023/04/11 09:23:40;;;;;;;;;;;11.50;99.90;;;;;;5075077;28;20052;-75
2023/04/11 09:26:10;;;;;;;5.05;1.55;;;11.10;99.90;;;;;;5074594;28;19927;-76
2023/04/11 09:28:51;;;;;;;6.45;1.60;;;10.80;99.90;;;;;;5074492;28;20040;-75
2023/04/11 09:31:16;;;;;;;9.80;1.92;;;10.70;99.90;;;;;;5074624;28;20123;-75
2023/04/11 09:33:53;;;;;;;4.07;1.25;;;10.40;99.90;;;;;;5074104;28;20080;-77
2023/04/11 09:36:21;;;;;;;4.70;1.40;;;10.10;99.90;;;;;;5074444;28;20053;-75
2023/04/11 09:38:47;;;;;;;4.95;1.75;;;9.80;99.90;;;;;;5073971;28;20090;-75
2023/04/11 09:41:13;;;;;;;7.90;1.80;;;9.70;99.90;;;;;;5074422;28;20088;-76
2023/04/11 09:43:50;;;;;;;5.82;1.60;;;9.70;99.90;;;;;;5074333;28;20063;-75
2023/04/11 09:46:19;;;;;;;7.85;1.83;;;9.80;99.90;;;;;;5073790;28;20484;-75
2023/04/11 09:48:46;;;;;;;5.80;1.63;;;10.00;99.90;;;;;;5073970;28;20041;-75
2023/04/11 09:51:12;;;;;;;4.95;1.52;;;10.00;99.90;;;;;;5074054;28;20055;-75
2023/04/11 09:53:37;;;;;;;6.93;1.83;;;9.90;99.90;;;;;;5074202;28;20048;-76
2023/04/11 09:56:05;;;;;;;3.97;1.40;;;10.00;99.90;;;;;;5073882;28;20515;-74
2023/04/11 09:58:32;;;;;;;4.53;1.30;;;9.90;99.90;;;;;;5073871;28;20048;-74
2023/04/11 10:01:01;;;;;;;;;;;10.00;99.90;;;;;;5074416;28;20105;-75
2023/04/11 10:03:33;;;;;;;10.05;2.10;;;10.20;99.90;;;;;;5073728;28;19927;-76
2023/04/11 10:06:01;;;;;;;7.35;1.75;;;10.50;99.90;;;;;;5073989;28;20040;-75
2023/04/11 10:08:32;;;;;;;5.75;1.77;;;10.80;99.90;;;;;;5073328;28;20093;-76
2023/04/11 10:11:02;;;;;;;4.70;1.52;;;11.00;99.90;;;;;;5073891;28;20129;-76
2023/04/11 10:13:34;;;;;;;7.95;1.92;;;10.90;99.90;;;;;;5073749;28;20055;-75
2023/04/11 10:16:20;;;;;;;4.45;1.35;;;11.20;99.90;;;;;;5072292;28;20063;-82
2023/04/11 10:18:51;;;;;;;9.13;1.88;;;11.40;99.90;;;;;;5073532;28;20127;-74
2023/04/11 10:21:29;;;;;;;6.85;1.50;;;11.40;99.90;;;;;;5073733;28;20071;-80
2023/04/11 10:24:13;;;;;;;5.57;1.15;;;11.10;99.90;;;;;;5073554;28;20056;-77
2023/04/11 10:27:02;;;;;;;3.88;1.30;;;10.60;99.90;;;;;;5073527;28;20075;-76
2023/04/11 10:29:39;;;;;;;3.83;1.05;;;10.10;99.90;;;;;;5073593;28;20067;-81
2023/04/11 10:32:14;;;;;;;3.92;1.40;;;10.10;99.90;;;;;;5073358;28;20094;-78
2023/04/11 10:34:49;;;;;;;5.32;1.55;;;9.70;99.90;;;;;;5073529;28;20048;-77
2023/04/11 10:37:30;;;;;;;8.63;1.73;;;9.70;99.90;;;;;;5073420;28;20046;-78
2023/04/11 10:39:59;;;;;;;6.90;1.40;;;9.80;99.90;;;;;;5073492;28;20052;-79
2023/04/11 10:42:38;;;;;;;8.15;2.25;;;9.90;99.90;;;;;;5073404;28;20044;-77
2023/04/11 10:45:29;;;;;;;6.72;1.73;;;10.00;99.90;;;;;;5073343;28;20045;-80
2023/04/11 10:48:00;;;;;;;6.90;1.90;;;9.70;99.90;;;;;;5073350;28;20044;-81
2023/04/11 10:50:26;;;;;;;8.95;2.47;;;9.70;99.90;;;;;;5072988;28;20056;-83
2023/04/11 10:52:52;;;;;;;4.60;1.58;;;9.80;99.90;;;;;;5073255;28;20098;-77
2023/04/11 10:55:18;;;;;;;9.83;2.07;;;9.90;99.90;;;;;;5073234;28;20045;-77
2023/04/11 10:58:18;;;;;;;4.87;1.70;;;10.00;99.90;;;;;;5073356;28;20278;-77
2023/04/11 11:00:50;;;;;;;6.38;1.75;;;10.00;99.90;;;;;;5073178;28;20362;-78
2023/04/11 11:03:21;;;;;;;6.60;1.50;;;10.10;99.90;;;;;;5072987;28;20059;-77
2023/04/11 11:05:56;;;;;;;6.57;1.98;;;10.30;99.90;;;;;;5073191;28;20053;-75
2023/04/11 11:08:29;;;;;;;7.60;1.65;;;10.20;99.90;;;;;;5072153;28;20438;-76
2023/04/11 11:11:05;;;;;;;6.25;1.58;;;10.10;99.90;;;;;;5073192;28;20131;-74
2023/04/11 11:13:44;;;;;;;5.43;1.60;;;10.00;99.90;;;;;;5072863;28;20504;-75
2023/04/11 11:16:21;;;;;;;5.43;1.35;;;10.20;99.90;;;;;;5072820;28;20052;-75
2023/04/11 11:18:49;;;;;;;6.38;1.58;;;10.50;99.90;;;;;;5073774;28;20040;-75
2023/04/11 11:21:18;;;;;;;7.60;1.45;;;10.70;99.90;;;;;;5076956;28;20052;-75
2023/04/11 11:24:01;;;;;;;3.78;1.27;;;11.40;99.90;;;;;;5076957;28;20054;-74
2023/04/11 11:26:43;;;;;;;6.20;1.42;;;11.10;99.90;;;;;;5076771;28;20054;-75
2023/04/11 11:29:09;;;;;;;3.58;1.40;;;11.20;99.90;;;;;;5075551;28;20480;-77
2023/04/11 11:31:44;;;;;;;8.55;2.03;;;11.30;99.90;;;;;;5076741;28;20052;-78
2023/04/11 11:34:11;;;;;;;6.43;1.65;;;11.40;99.90;;;;;;5076817;28;20045;-75
2023/04/11 11:36:44;;;;;;;8.25;1.83;;;11.60;99.90;;;;;;5076227;28;20040;-75
2023/04/11 11:39:10;;;;;;;9.63;2.03;;;11.80;99.90;;;;;;5076114;28;20051;-74
2023/04/11 11:41:37;;;;;;;8.10;1.73;;;11.90;99.90;;;;;;5076686;28;20148;-75
2023/04/11 11:44:04;;;;;;;4.65;1.40;;;12.10;99.90;;;;;;5076198;28;20488;-74
2023/04/11 11:46:32;;;;;;;5.85;1.50;;;12.20;99.90;;;;;;5076271;28;20474;-74
2023/04/11 11:49:00;;;;;;;4.20;1.40;;;11.70;99.90;;;;;;5076097;28;20098;-75
2023/04/11 11:51:37;;;;;;;7.05;1.63;;;11.50;99.90;;;;;;5076253;28;20049;-74
2023/04/11 11:54:04;;;;;;;6.88;1.60;;;11.70;99.90;;;;;;5076124;28;20500;-75
2023/04/11 11:56:30;;;;;;;5.18;1.40;;;12.00;99.90;;;;;;5076195;28;20515;-74
2023/04/11 11:58:56;;;;;;;6.13;1.38;;;12.20;99.90;;;;;;5075968;28;20050;-75
2023/04/11 12:01:22;;;;;;;8.00;1.45;;;12.20;99.90;;;;;;5076100;28;20049;-75
2023/04/11 12:03:50;;;;;;;7.18;1.55;;;12.30;99.90;;;;;;5076120;28;20076;-74
2023/04/11 12:06:16;;;;;;;6.80;1.33;;;12.60;99.90;;;;;;5075372;28;20442;-74
2023/04/11 12:08:43;;;;;;;5.00;1.60;;;12.20;99.90;;;;;;5075691;28;20376;-74
2023/04/11 12:11:15;;;;;;;5.25;1.52;;;12.20;99.90;;;;;;5076021;28;20094;-73
2023/04/11 12:13:41;;;;;;;6.25;1.70;;;12.30;99.90;;;;;;5074414;28;20416;-74
2023/04/11 12:16:07;;;;;;;6.15;1.98;;;12.50;99.90;;;;;;5075997;28;20048;-74
2023/04/11 12:18:33;;;;;;;4.97;1.40;;;12.80;99.90;;;;;;5075933;28;20442;-74
2023/04/11 12:20:58;;;;;;;5.15;1.90;;;12.80;99.90;;;;;;5075732;28;20139;-74
2023/04/11 12:23:24;;;;;;;13.63;2.00;;;13.00;99.90;;;;;;5075553;28;20051;-73
2023/04/11 12:25:50;;;;;;;5.00;1.63;;;13.00;99.90;;;;;;5075837;28;20048;-74
2023/04/11 12:28:15;;;;;;;6.40;1.88;;;13.10;99.90;;;;;;5075569;28;20048;-73
2023/04/11 12:30:41;;;;;;;9.70;1.83;;;13.10;99.90;;;;;;5075437;28;20551;-74
2023/04/11 12:33:06;;;;;;;7.03;1.52;;;13.50;99.90;;;;;;5075629;28;20044;-74
2023/04/11 12:35:32;;;;;;;7.32;2.70;;;13.00;99.90;;;;;;5075205;28;20048;-74
2023/04/11 12:37:58;;;;;;;5.50;1.67;;;12.90;99.90;;;;;;5075591;28;20476;-74
2023/04/11 12:40:24;;;;;;;5.18;1.52;;;12.80;99.90;;;;;;5075492;28;20048;-74
2023/04/11 12:42:50;;;;;;;10.37;1.57;;;12.70;99.90;;;;;;5075380;28;20040;-74
2023/04/11 12:45:15;;;;;;;7.15;1.85;;;12.80;99.90;;;;;;5075405;28;20397;-74
2023/04/11 12:47:42;;;;;;;4.30;1.42;;;12.80;99.90;;;;;;5075329;28;20041;-74
2023/04/11 12:50:08;;;;;;;7.18;2.00;;;12.80;99.90;;;;;;5075037;28;20051;-74
2023/04/11 12:52:35;;;;;;;5.32;1.67;;;13.00;99.90;;;;;;5075303;28;20040;-74
2023/04/11 12:55:01;;;;;;;9.15;2.03;;;13.00;99.90;;;;;;5075277;28;20044;-74
2023/04/11 12:57:27;;;;;;;5.10;1.63;;;13.20;99.90;;;;;;5075068;28;20044;-74